Airborne Airpark
KILN : now visible

Airfield :











YOU CAN JOIN US ON...

 
LOGIN :

Register | Disclaimer

   EN    FR    IT 

 









Legend :    VFR   Marginal VFR   IFR   Intensive IFR   Very Intensive IFR
Visi :
Ceiling :
>= 8 km
>= 3000ft
5 to 8 km
1000 to 3000 ft
1500m to 5 km
500 to 1000 ft
800 to 1500m
200 to 500 ft
< 800m
< 200 ft
Symbols :   Thunderstorms  Fog  Heavy snow  Heavy precipitations  Wind > 20 kt






- Airport Elevation : 1077 ft


KILN - Airborne Airpark

CURRENT METAR :
  • 060354Z AUTO 08004KT 10SM CLR 22/18 A2999 RMK AO2 SLP142 T02220183

EXPIRED METARs :
  • 060254Z AUTO 00000KT 10SM CLR 25/18 A2999 RMK AO2 SLP142 T02500178 51016
  • 060154Z AUTO 00000KT 10SM FEW120 25/19 A2999 RMK AO2 SLP140 T02500189

TAF KILN
Valid from the 06 at 00:00 until the 07 at 00:00 UTC


052330Z 0600/0624 05004KT P6SM FEW090
FM060200 00000KT P6SM SKC
TEMPO 0609/0612 5SM BR
FM061400 14003KT P6SM FEW070
FM061900 18004KT P6SM SCT070
KZID FIR / North America



MET'MAP, your aeronautical weather chart ! - Copyright ORBIFLY December 2007 - Disclaimer

ORBIFLY MET'MAP TEAM :

Programming & Development : Alexandra Zaïnal
Concept & original design : Baudouin d'Aumeries
Assistance for programming : Marc-Olivier Méhu
Technical & hardware support : Manuel Goepfert

Contact : metmap@orbifly.com




SOURCES & CREDITS :

   NOAA       Earth
Advisory